sensor_id;sensor_type;location;lat;lon;timestamp;temperature;humidity
47921;DHT22;33686;48.770;9.186;2022-12-24T06:15:17;9.60;99.90
47921;DHT22;33686;48.770;9.186;2022-12-24T06:17:42;9.60;99.90
47921;DHT22;33686;48.770;9.186;2022-12-24T06:20:08;9.60;99.90
47921;DHT22;33686;48.770;9.186;2022-12-24T06:22:34;9.60;99.90
47921;DHT22;33686;48.770;9.186;2022-12-24T06:24:59;9.50;99.90
47921;DHT22;33686;48.770;9.186;2022-12-24T06:27:25;9.50;99.90
47921;DHT22;33686;48.770;9.186;2022-12-24T06:29:50;9.40;99.90
47921;DHT22;33686;48.770;9.186;2022-12-24T06:32:16;9.40;99.90
47921;DHT22;33686;48.770;9.186;2022-12-24T06:34:42;9.30;99.90
47921;DHT22;33686;48.770;9.186;2022-12-24T06:37:07;9.20;99.90
47921;DHT22;33686;48.770;9.186;2022-12-24T06:39:40;9.20;99.90
47921;DHT22;33686;48.770;9.186;2022-12-24T06:42:06;9.20;99.90
47921;DHT22;33686;48.770;9.186;2022-12-24T06:44:31;9.20;99.90
47921;DHT22;33686;48.770;9.186;2022-12-24T06:46:57;9.10;99.90
47921;DHT22;33686;48.770;9.186;2022-12-24T06:49:22;9.10;99.90
47921;DHT22;33686;48.770;9.186;2022-12-24T06:51:48;9.20;99.90
47921;DHT22;33686;48.770;9.186;2022-12-24T06:54:14;9.20;99.90
47921;DHT22;33686;48.770;9.186;2022-12-24T06:56:39;9.20;99.90
47921;DHT22;33686;48.770;9.186;2022-12-24T06:59:05;9.30;99.90
47921;DHT22;33686;48.770;9.186;2022-12-24T07:01:30;9.30;99.90
47921;DHT22;33686;48.770;9.186;2022-12-24T07:03:56;9.40;99.90
47921;DHT22;33686;48.770;9.186;2022-12-24T07:06:25;9.40;99.90
47921;DHT22;33686;48.770;9.186;2022-12-24T07:08:52;9.50;99.90
47921;DHT22;33686;48.770;9.186;2022-12-24T07:11:18;9.60;99.90
47921;DHT22;33686;48.770;9.186;2022-12-24T07:13:44;9.60;99.90
47921;DHT22;33686;48.770;9.186;2022-12-24T07:16:10;9.60;99.90
47921;DHT22;33686;48.770;9.186;2022-12-24T07:18:36;9.70;99.90
47921;DHT22;33686;48.770;9.186;2022-12-24T07:21:02;9.60;99.90
47921;DHT22;33686;48.770;9.186;2022-12-24T07:23:28;9.70;99.90
47921;DHT22;33686;48.770;9.186;2022-12-24T07:25:59;9.70;99.90
47921;DHT22;33686;48.770;9.186;2022-12-24T07:28:25;9.70;99.90
47921;DHT22;33686;48.770;9.186;2022-12-24T07:30:51;9.70;99.90
47921;DHT22;33686;48.770;9.186;2022-12-24T07:33:17;9.70;99.90
47921;DHT22;33686;48.770;9.186;2022-12-24T07:35:43;9.60;99.90
47921;DHT22;33686;48.770;9.186;2022-12-24T07:38:08;9.60;99.90
47921;DHT22;33686;48.770;9.186;2022-12-24T07:40:34;9.50;99.90
47921;DHT22;33686;48.770;9.186;2022-12-24T07:42:59;9.50;99.90
47921;DHT22;33686;48.770;9.186;2022-12-24T07:45:25;9.40;99.90
47921;DHT22;33686;48.770;9.186;2022-12-24T07:47:50;9.40;99.90
47921;DHT22;33686;48.770;9.186;2022-12-24T07:50:16;9.40;99.90
47921;DHT22;33686;48.770;9.186;2022-12-24T07:52:42;9.40;99.90
47921;DHT22;33686;48.770;9.186;2022-12-24T07:55:07;9.50;99.90
47921;DHT22;33686;48.770;9.186;2022-12-24T07:57:33;9.60;99.90
47921;DHT22;33686;48.770;9.186;2022-12-24T07:59:58;9.60;99.90
47921;DHT22;33686;48.770;9.186;2022-12-24T08:02:24;9.60;99.90
47921;DHT22;33686;48.770;9.186;2022-12-24T08:04:50;9.60;99.90
47921;DHT22;33686;48.770;9.186;2022-12-24T08:07:18;9.60;99.90
47921;DHT22;33686;48.770;9.186;2022-12-24T08:09:43;9.70;99.90
47921;DHT22;33686;48.770;9.186;2022-12-24T08:12:10;9.70;99.90
47921;DHT22;33686;48.770;9.186;2022-12-24T08:14:36;9.70;99.90
47921;DHT22;33686;48.770;9.186;2022-12-24T08:17:02;9.80;99.90
47921;DHT22;33686;48.770;9.186;2022-12-24T08:19:27;9.80;99.90
47921;DHT22;33686;48.770;9.186;2022-12-24T08:21:53;9.90;99.90
47921;DHT22;33686;48.770;9.186;2022-12-24T08:24:18;9.90;99.90
47921;DHT22;33686;48.770;9.186;2022-12-24T08:26:44;10.00;99.90
47921;DHT22;33686;48.770;9.186;2022-12-24T08:29:10;10.00;99.90
47921;DHT22;33686;48.770;9.186;2022-12-24T08:31:36;10.10;99.90
47921;DHT22;33686;48.770;9.186;2022-12-24T08:34:02;10.10;99.90
47921;DHT22;33686;48.770;9.186;2022-12-24T08:36:28;10.20;99.90
47921;DHT22;33686;48.770;9.186;2022-12-24T08:38:54;10.30;99.90
47921;DHT22;33686;48.770;9.186;2022-12-24T08:41:19;10.30;99.90
47921;DHT22;33686;48.770;9.186;2022-12-24T08:43:45;10.30;99.90
47921;DHT22;33686;48.770;9.186;2022-12-24T08:46:10;10.40;99.90
47921;DHT22;33686;48.770;9.186;2022-12-24T08:48:36;10.40;99.90
47921;DHT22;33686;48.770;9.186;2022-12-24T08:51:08;10.40;99.90
47921;DHT22;33686;48.770;9.186;2022-12-24T08:53:34;10.40;99.90
47921;DHT22;33686;48.770;9.186;2022-12-24T08:56:00;10.40;99.90
47921;DHT22;33686;48.770;9.186;2022-12-24T08:58:25;10.50;99.90
47921;DHT22;33686;48.770;9.186;2022-12-24T09:00:51;10.50;99.90
47921;DHT22;33686;48.770;9.186;2022-12-24T09:03:16;10.40;99.90
47921;DHT22;33686;48.770;9.186;2022-12-24T09:05:42;10.40;99.90
47921;DHT22;33686;48.770;9.186;2022-12-24T09:08:07;10.40;99.90
47921;DHT22;33686;48.770;9.186;2022-12-24T09:10:33;10.40;99.90
47921;DHT22;33686;48.770;9.186;2022-12-24T09:12:58;10.40;99.90
47921;DHT22;33686;48.770;9.186;2022-12-24T09:15:24;10.50;99.90
47921;DHT22;33686;48.770;9.186;2022-12-24T09:17:50;10.50;99.90
47921;DHT22;33686;48.770;9.186;2022-12-24T09:20:15;10.70;99.90
47921;DHT22;33686;48.770;9.186;2022-12-24T09:22:41;10.80;99.90
47921;DHT22;33686;48.770;9.186;2022-12-24T09:25:07;10.90;99.90
47921;DHT22;33686;48.770;9.186;2022-12-24T09:27:35;11.00;99.90
47921;DHT22;33686;48.770;9.186;2022-12-24T09:30:00;11.00;99.90
47921;DHT22;33686;48.770;9.186;2022-12-24T09:32:26;11.00;99.90
47921;DHT22;33686;48.770;9.186;2022-12-24T09:34:51;11.10;99.90
47921;DHT22;33686;48.770;9.186;2022-12-24T09:37:17;11.10;99.90
47921;DHT22;33686;48.770;9.186;2022-12-24T09:39:42;11.10;99.90
47921;DHT22;33686;48.770;9.186;2022-12-24T09:42:13;11.10;99.90
47921;DHT22;33686;48.770;9.186;2022-12-24T09:49:55;11.00;99.90
47921;DHT22;33686;48.770;9.186;2022-12-24T09:52:28;10.90;99.90
47921;DHT22;33686;48.770;9.186;2022-12-24T09:54:57;10.90;99.90
47921;DHT22;33686;48.770;9.186;2022-12-24T09:57:31;10.80;99.90
47921;DHT22;33686;48.770;9.186;2022-12-24T09:59:58;10.80;99.90
47921;DHT22;33686;48.770;9.186;2022-12-24T10:02:24;11.00;99.90
47921;DHT22;33686;48.770;9.186;2022-12-24T10:04:49;10.90;99.90
47921;DHT22;33686;48.770;9.186;2022-12-24T10:07:20;10.90;99.90
47921;DHT22;33686;48.770;9.186;2022-12-24T10:14:51;11.00;99.90
47921;DHT22;33686;48.770;9.186;2022-12-24T10:17:25;11.00;99.90
47921;DHT22;33686;48.770;9.186;2022-12-24T10:19:56;11.00;99.90
47921;DHT22;33686;48.770;9.186;2022-12-24T10:25:17;11.10;99.90
47921;DHT22;33686;48.770;9.186;2022-12-24T10:27:45;11.00;99.90
47921;DHT22;33686;48.770;9.186;2022-12-24T10:30:20;11.00;99.90
47921;DHT22;33686;48.770;9.186;2022-12-24T10:32:48;11.00;99.90
47921;DHT22;33686;48.770;9.186;2022-12-24T10:37:40;11.00;99.90
47921;DHT22;33686;48.770;9.186;2022-12-24T10:40:10;11.10;99.90
47921;DHT22;33686;48.770;9.186;2022-12-24T10:42:39;11.10;99.90
47921;DHT22;33686;48.770;9.186;2022-12-24T10:45:09;11.00;99.90
47921;DHT22;33686;48.770;9.186;2022-12-24T10:47:38;11.10;99.90
47921;DHT22;33686;48.770;9.186;2022-12-24T10:52:48;11.20;99.90
47921;DHT22;33686;48.770;9.186;2022-12-24T10:57:44;11.30;99.90
47921;DHT22;33686;48.770;9.186;2022-12-24T11:00:20;11.40;99.90
47921;DHT22;33686;48.770;9.186;2022-12-24T11:02:46;11.40;99.90
47921;DHT22;33686;48.770;9.186;2022-12-24T11:05:29;11.40;99.90
47921;DHT22;33686;48.770;9.186;2022-12-24T11:07:58;11.40;99.90
47921;DHT22;33686;48.770;9.186;2022-12-24T11:10:24;11.40;99.90
47921;DHT22;33686;48.770;9.186;2022-12-24T11:12:50;11.50;99.90
47921;DHT22;33686;48.770;9.186;2022-12-24T11:15:17;11.50;99.90
47921;DHT22;33686;48.770;9.186;2022-12-24T11:17:53;11.40;99.90
47921;DHT22;33686;48.770;9.186;2022-12-24T11:20:20;11.40;99.90
47921;DHT22;33686;48.770;9.186;2022-12-24T11:22:48;11.40;99.90
47921;DHT22;33686;48.770;9.186;2022-12-24T11:25:21;11.40;99.90
47921;DHT22;33686;48.770;9.186;2022-12-24T11:27:47;11.40;99.90
47921;DHT22;33686;48.770;9.186;2022-12-24T11:30:18;11.40;99.90
47921;DHT22;33686;48.770;9.186;2022-12-24T11:32:48;11.40;99.90
47921;DHT22;33686;48.770;9.186;2022-12-24T11:35:21;11.40;99.90
47921;DHT22;33686;48.770;9.186;2022-12-24T11:37:47;11.50;99.90
47921;DHT22;33686;48.770;9.186;2022-12-24T11:40:20;11.50;99.90
47921;DHT22;33686;48.770;9.186;2022-12-24T11:42:46;11.60;99.90
47921;DHT22;33686;48.770;9.186;2022-12-24T11:45:20;11.60;99.90
47921;DHT22;33686;48.770;9.186;2022-12-24T11:47:47;11.70;99.90
47921;DHT22;33686;48.770;9.186;2022-12-24T11:50:23;11.70;99.90
47921;DHT22;33686;48.770;9.186;2022-12-24T11:53:35;11.80;99.90
47921;DHT22;33686;48.770;9.186;2022-12-24T12:00:35;12.10;99.90
47921;DHT22;33686;48.770;9.186;2022-12-24T12:03:01;12.10;99.90
47921;DHT22;33686;48.770;9.186;2022-12-24T12:05:32;12.10;99.90
47921;DHT22;33686;48.770;9.186;2022-12-24T12:08:07;12.20;99.90
47921;DHT22;33686;48.770;9.186;2022-12-24T12:10:35;12.20;99.90
47921;DHT22;33686;48.770;9.186;2022-12-24T12:13:04;12.20;99.90
47921;DHT22;33686;48.770;9.186;2022-12-24T12:16:12;12.40;99.90
47921;DHT22;33686;48.770;9.186;2022-12-24T12:18:41;12.40;99.90
47921;DHT22;33686;48.770;9.186;2022-12-24T12:21:17;12.40;99.90
47921;DHT22;33686;48.770;9.186;2022-12-24T12:23:59;12.40;99.90
47921;DHT22;33686;48.770;9.186;2022-12-24T12:26:27;12.40;99.90
47921;DHT22;33686;48.770;9.186;2022-12-24T12:31:39;12.30;99.90
47921;DHT22;33686;48.770;9.186;2022-12-24T12:34:14;12.20;99.90
47921;DHT22;33686;48.770;9.186;2022-12-24T12:36:48;12.20;99.90
47921;DHT22;33686;48.770;9.186;2022-12-24T12:39:15;12.20;99.90
47921;DHT22;33686;48.770;9.186;2022-12-24T12:41:46;12.20;99.90
47921;DHT22;33686;48.770;9.186;2022-12-24T12:49:32;12.30;99.90
47921;DHT22;33686;48.770;9.186;2022-12-24T12:52:09;12.30;99.90
47921;DHT22;33686;48.770;9.186;2022-12-24T12:57:20;12.20;99.90
47921;DHT22;33686;48.770;9.186;2022-12-24T13:02:20;12.20;99.90
47921;DHT22;33686;48.770;9.186;2022-12-24T13:04:52;12.30;99.90
47921;DHT22;33686;48.770;9.186;2022-12-24T13:10:04;12.30;99.90
47921;DHT22;33686;48.770;9.186;2022-12-24T13:12:39;12.40;99.90
47921;DHT22;33686;48.770;9.186;2022-12-24T13:22:50;12.40;99.90
47921;DHT22;33686;48.770;9.186;2022-12-24T13:25:19;12.40;99.90
47921;DHT22;33686;48.770;9.186;2022-12-24T13:27:45;12.40;99.90
47921;DHT22;33686;48.770;9.186;2022-12-24T13:30:31;12.30;99.90
47921;DHT22;33686;48.770;9.186;2022-12-24T13:32:56;12.20;99.90
47921;DHT22;33686;48.770;9.186;2022-12-24T13:37:48;12.20;99.90
47921;DHT22;33686;48.770;9.186;2022-12-24T13:40:34;12.30;99.90
47921;DHT22;33686;48.770;9.186;2022-12-24T13:50:49;12.20;99.90
47921;DHT22;33686;48.770;9.186;2022-12-24T13:53:22;12.10;99.90
47921;DHT22;33686;48.770;9.186;2022-12-24T13:55:56;12.10;99.90
47921;DHT22;33686;48.770;9.186;2022-12-24T13:58:24;12.00;99.90
47921;DHT22;33686;48.770;9.186;2022-12-24T14:00:56;11.90;99.90
47921;DHT22;33686;48.770;9.186;2022-12-24T14:03:25;11.90;99.90
47921;DHT22;33686;48.770;9.186;2022-12-24T14:05:58;11.80;99.90
47921;DHT22;33686;48.770;9.186;2022-12-24T14:08:26;11.80;99.90
47921;DHT22;33686;48.770;9.186;2022-12-24T14:11:09;11.70;99.90
47921;DHT22;33686;48.770;9.186;2022-12-24T14:18:43;11.50;99.90
47921;DHT22;33686;48.770;9.186;2022-12-24T14:21:15;11.50;99.90
47921;DHT22;33686;48.770;9.186;2022-12-24T14:26:11;11.40;99.90
47921;DHT22;33686;48.770;9.186;2022-12-24T14:28:39;11.30;99.90
47921;DHT22;33686;48.770;9.186;2022-12-24T14:31:10;11.30;99.90
47921;DHT22;33686;48.770;9.186;2022-12-24T14:33:37;11.30;99.90
47921;DHT22;33686;48.770;9.186;2022-12-24T14:36:02;11.30;99.90
47921;DHT22;33686;48.770;9.186;2022-12-24T14:38:28;11.30;99.90
47921;DHT22;33686;48.770;9.186;2022-12-24T14:43:50;11.30;99.90
47921;DHT22;33686;48.770;9.186;2022-12-24T14:46:21;11.30;99.90
47921;DHT22;33686;48.770;9.186;2022-12-24T14:48:52;11.30;99.90
47921;DHT22;33686;48.770;9.186;2022-12-24T14:56:14;11.20;99.90
47921;DHT22;33686;48.770;9.186;2022-12-24T14:58:41;11.10;99.90
47921;DHT22;33686;48.770;9.186;2022-12-24T15:06:34;10.90;99.90
47921;DHT22;33686;48.770;9.186;2022-12-24T15:09:00;10.90;99.90
47921;DHT22;33686;48.770;9.186;2022-12-24T15:11:26;10.80;99.90
47921;DHT22;33686;48.770;9.186;2022-12-24T15:13:53;10.80;99.90
47921;DHT22;33686;48.770;9.186;2022-12-24T15:16:26;10.70;99.90
47921;DHT22;33686;48.770;9.186;2022-12-24T15:18:53;10.60;99.90
47921;DHT22;33686;48.770;9.186;2022-12-24T15:21:29;10.50;99.90
47921;DHT22;33686;48.770;9.186;2022-12-24T15:23:56;10.50;99.90
47921;DHT22;33686;48.770;9.186;2022-12-24T15:28:47;10.40;99.90
47921;DHT22;33686;48.770;9.186;2022-12-24T15:31:14;10.30;99.90
47921;DHT22;33686;48.770;9.186;2022-12-24T15:33:42;10.20;99.90
47921;DHT22;33686;48.770;9.186;2022-12-24T15:36:08;10.20;99.90
47921;DHT22;33686;48.770;9.186;2022-12-24T15:38:38;10.20;99.90
47921;DHT22;33686;48.770;9.186;2022-12-24T15:41:15;10.10;99.90
47921;DHT22;33686;48.770;9.186;2022-12-24T15:43:41;10.10;99.90
47921;DHT22;33686;48.770;9.186;2022-12-24T15:46:08;10.10;99.90
47921;DHT22;33686;48.770;9.186;2022-12-24T15:48:33;10.10;99.90
47921;DHT22;33686;48.770;9.186;2022-12-24T15:51:02;10.10;99.90
47921;DHT22;33686;48.770;9.186;2022-12-24T15:53:33;10.00;99.90
47921;DHT22;33686;48.770;9.186;2022-12-24T15:58:35;10.00;99.90
47921;DHT22;33686;48.770;9.186;2022-12-24T16:03:32;10.10;99.90
47921;DHT22;33686;48.770;9.186;2022-12-24T16:06:08;10.10;99.90
47921;DHT22;33686;48.770;9.186;2022-12-24T16:08:36;10.10;99.90
47921;DHT22;33686;48.770;9.186;2022-12-24T16:14:20;10.10;99.90
47921;DHT22;33686;48.770;9.186;2022-12-24T16:16:21;10.10;99.90
47921;DHT22;33686;48.770;9.186;2022-12-24T16:18:54;10.00;99.90
47921;DHT22;33686;48.770;9.186;2022-12-24T16:21:34;10.00;99.90
47921;DHT22;33686;48.770;9.186;2022-12-24T16:24:04;10.00;99.90
47921;DHT22;33686;48.770;9.186;2022-12-24T16:26:34;10.00;99.90
47921;DHT22;33686;48.770;9.186;2022-12-24T16:29:00;10.00;99.90
47921;DHT22;33686;48.770;9.186;2022-12-24T16:31:32;10.10;99.90
47921;DHT22;33686;48.770;9.186;2022-12-24T16:33:59;10.10;99.90
47921;DHT22;33686;48.770;9.186;2022-12-24T16:36:25;10.10;99.90
47921;DHT22;33686;48.770;9.186;2022-12-24T16:38:50;10.00;99.90
47921;DHT22;33686;48.770;9.186;2022-12-24T16:41:35;10.00;99.90
47921;DHT22;33686;48.770;9.186;2022-12-24T16:44:20;10.00;99.90
47921;DHT22;33686;48.770;9.186;2022-12-24T16:46:46;10.10;99.90
47921;DHT22;33686;48.770;9.186;2022-12-24T16:49:15;10.10;99.90
47921;DHT22;33686;48.770;9.186;2022-12-24T16:51:41;10.10;99.90
47921;DHT22;33686;48.770;9.186;2022-12-24T16:54:09;10.10;99.90
47921;DHT22;33686;48.770;9.186;2022-12-24T16:56:35;10.20;99.90
47921;DHT22;33686;48.770;9.186;2022-12-24T16:59:00;10.10;99.90
47921;DHT22;33686;48.770;9.186;2022-12-24T17:01:26;10.10;99.90
47921;DHT22;33686;48.770;9.186;2022-12-24T17:03:51;10.20;99.90
47921;DHT22;33686;48.770;9.186;2022-12-24T17:06:17;10.10;99.90
47921;DHT22;33686;48.770;9.186;2022-12-24T17:08:42;10.10;99.90
47921;DHT22;33686;48.770;9.186;2022-12-24T17:11:08;10.10;99.90
47921;DHT22;33686;48.770;9.186;2022-12-24T17:13:33;10.20;99.90
47921;DHT22;33686;48.770;9.186;2022-12-24T17:15:59;10.20;99.90
47921;DHT22;33686;48.770;9.186;2022-12-24T17:18:25;10.10;99.90
47921;DHT22;33686;48.770;9.186;2022-12-24T17:21:00;10.10;99.90
47921;DHT22;33686;48.770;9.186;2022-12-24T17:23:26;10.20;99.90
47921;DHT22;33686;48.770;9.186;2022-12-24T17:25:51;10.30;99.90
47921;DHT22;33686;48.770;9.186;2022-12-24T17:28:18;10.30;99.90
47921;DHT22;33686;48.770;9.186;2022-12-24T17:30:44;10.30;99.90
47921;DHT22;33686;48.770;9.186;2022-12-24T17:33:09;10.40;99.90
47921;DHT22;33686;48.770;9.186;2022-12-24T17:35:41;10.50;99.90
47921;DHT22;33686;48.770;9.186;2022-12-24T17:38:07;10.50;99.90
47921;DHT22;33686;48.770;9.186;2022-12-24T17:40:32;10.50;99.90
47921;DHT22;33686;48.770;9.186;2022-12-24T17:42:58;10.50;99.90
47921;DHT22;33686;48.770;9.186;2022-12-24T17:45:24;10.50;99.90
47921;DHT22;33686;48.770;9.186;2022-12-24T17:47:49;10.50;99.90
47921;DHT22;33686;48.770;9.186;2022-12-24T17:50:15;10.60;99.90
47921;DHT22;33686;48.770;9.186;2022-12-24T17:52:40;10.60;99.90
47921;DHT22;33686;48.770;9.186;2022-12-24T17:55:06;10.60;99.90
47921;DHT22;33686;48.770;9.186;2022-12-24T17:57:33;10.60;99.90
47921;DHT22;33686;48.770;9.186;2022-12-24T17:59:58;10.60;99.90
47921;DHT22;33686;48.770;9.186;2022-12-24T18:02:24;10.60;99.90
47921;DHT22;33686;48.770;9.186;2022-12-24T18:04:50;10.60;99.90
47921;DHT22;33686;48.770;9.186;2022-12-24T18:07:15;10.60;99.90
47921;DHT22;33686;48.770;9.186;2022-12-24T18:09:44;10.60;99.90
47921;DHT22;33686;48.770;9.186;2022-12-24T18:12:10;10.60;99.90
47921;DHT22;33686;48.770;9.186;2022-12-24T18:14:36;10.60;99.90
47921;DHT22;33686;48.770;9.186;2022-12-24T18:17:02;10.60;99.90
47921;DHT22;33686;48.770;9.186;2022-12-24T18:19:28;10.60;99.90
47921;DHT22;33686;48.770;9.186;2022-12-24T18:21:53;10.60;99.90
47921;DHT22;33686;48.770;9.186;2022-12-24T18:24:19;10.70;99.90
47921;DHT22;33686;48.770;9.186;2022-12-24T18:26:44;10.60;99.90
47921;DHT22;33686;48.770;9.186;2022-12-24T18:29:10;10.60;99.90
47921;DHT22;33686;48.770;9.186;2022-12-24T18:31:36;10.60;99.90
47921;DHT22;33686;48.770;9.186;2022-12-24T18:34:03;10.70;99.90
47921;DHT22;33686;48.770;9.186;2022-12-24T18:36:29;10.60;99.90
47921;DHT22;33686;48.770;9.186;2022-12-24T18:38:55;10.60;99.90
47921;DHT22;33686;48.770;9.186;2022-12-24T18:41:25;10.60;99.90
47921;DHT22;33686;48.770;9.186;2022-12-24T18:43:50;10.60;99.90
47921;DHT22;33686;48.770;9.186;2022-12-24T18:46:27;10.60;99.90
47921;DHT22;33686;48.770;9.186;2022-12-24T18:48:53;10.60;99.90
47921;DHT22;33686;48.770;9.186;2022-12-24T18:51:20;10.60;99.90
47921;DHT22;33686;48.770;9.186;2022-12-24T18:53:49;10.50;99.90
47921;DHT22;33686;48.770;9.186;2022-12-24T18:56:19;10.50;99.90
47921;DHT22;33686;48.770;9.186;2022-12-24T18:58:45;10.50;99.90
47921;DHT22;33686;48.770;9.186;2022-12-24T19:03:36;10.50;99.90
47921;DHT22;33686;48.770;9.186;2022-12-24T19:06:02;10.40;99.90
47921;DHT22;33686;48.770;9.186;2022-12-24T19:08:27;10.40;99.90
47921;DHT22;33686;48.770;9.186;2022-12-24T19:10:53;10.50;99.90
47921;DHT22;33686;48.770;9.186;2022-12-24T19:13:18;10.50;99.90
47921;DHT22;33686;48.770;9.186;2022-12-24T19:15:44;10.40;99.90
47921;DHT22;33686;48.770;9.186;2022-12-24T19:18:09;10.50;99.90
47921;DHT22;33686;48.770;9.186;2022-12-24T19:20:38;10.50;99.90
47921;DHT22;33686;48.770;9.186;2022-12-24T19:23:04;10.40;99.90
47921;DHT22;33686;48.770;9.186;2022-12-24T19:25:30;10.40;99.90
47921;DHT22;33686;48.770;9.186;2022-12-24T19:27:56;10.40;99.90
47921;DHT22;33686;48.770;9.186;2022-12-24T19:30:22;10.40;99.90
47921;DHT22;33686;48.770;9.186;2022-12-24T19:32:47;10.40;99.90
47921;DHT22;33686;48.770;9.186;2022-12-24T19:35:13;10.40;99.90
47921;DHT22;33686;48.770;9.186;2022-12-24T19:37:38;10.40;99.90
47921;DHT22;33686;48.770;9.186;2022-12-24T19:40:04;10.40;99.90
47921;DHT22;33686;48.770;9.186;2022-12-24T19:42:30;10.40;99.90
47921;DHT22;33686;48.770;9.186;2022-12-24T19:44:55;10.30;99.90
47921;DHT22;33686;48.770;9.186;2022-12-24T19:47:21;10.30;99.90
47921;DHT22;33686;48.770;9.186;2022-12-24T19:49:46;10.30;99.90
47921;DHT22;33686;48.770;9.186;2022-12-24T19:52:12;10.30;99.90
47921;DHT22;33686;48.770;9.186;2022-12-24T19:54:38;10.30;99.90
47921;DHT22;33686;48.770;9.186;2022-12-24T19:57:03;10.30;99.90
47921;DHT22;33686;48.770;9.186;2022-12-24T19:59:29;10.30;99.90
47921;DHT22;33686;48.770;9.186;2022-12-24T20:01:54;10.30;99.90
47921;DHT22;33686;48.770;9.186;2022-12-24T20:04:20;10.30;99.90
47921;DHT22;33686;48.770;9.186;2022-12-24T20:06:46;10.30;99.90
47921;DHT22;33686;48.770;9.186;2022-12-24T20:09:11;10.30;99.90
47921;DHT22;33686;48.770;9.186;2022-12-24T20:11:37;10.30;99.90
47921;DHT22;33686;48.770;9.186;2022-12-24T20:14:03;10.20;99.90
47921;DHT22;33686;48.770;9.186;2022-12-24T20:16:29;10.30;99.90
47921;DHT22;33686;48.770;9.186;2022-12-24T20:18:59;10.20;99.90
47921;DHT22;33686;48.770;9.186;2022-12-24T20:21:25;10.20;99.90
47921;DHT22;33686;48.770;9.186;2022-12-24T20:23:51;10.20;99.90
47921;DHT22;33686;48.770;9.186;2022-12-24T20:26:19;10.20;99.90
47921;DHT22;33686;48.770;9.186;2022-12-24T20:28:45;10.30;99.90
47921;DHT22;33686;48.770;9.186;2022-12-24T20:31:15;10.30;99.90
47921;DHT22;33686;48.770;9.186;2022-12-24T20:33:41;10.30;99.90
47921;DHT22;33686;48.770;9.186;2022-12-24T20:36:07;10.30;99.90
47921;DHT22;33686;48.770;9.186;2022-12-24T20:38:35;10.30;99.90
47921;DHT22;33686;48.770;9.186;2022-12-24T20:41:00;10.20;99.90
47921;DHT22;33686;48.770;9.186;2022-12-24T20:43:26;10.20;99.90
47921;DHT22;33686;48.770;9.186;2022-12-24T20:45:54;10.20;99.90
47921;DHT22;33686;48.770;9.186;2022-12-24T20:48:19;10.20;99.90
47921;DHT22;33686;48.770;9.186;2022-12-24T20:50:45;10.20;99.90
47921;DHT22;33686;48.770;9.186;2022-12-24T20:53:11;10.20;99.90
47921;DHT22;33686;48.770;9.186;2022-12-24T20:55:37;10.10;99.90
47921;DHT22;33686;48.770;9.186;2022-12-24T20:58:02;10.20;99.90
47921;DHT22;33686;48.770;9.186;2022-12-24T21:00:28;10.10;99.90
47921;DHT22;33686;48.770;9.186;2022-12-24T21:02:53;10.00;99.90
47921;DHT22;33686;48.770;9.186;2022-12-24T21:05:19;10.00;99.90
47921;DHT22;33686;48.770;9.186;2022-12-24T21:07:44;10.00;99.90
47921;DHT22;33686;48.770;9.186;2022-12-24T21:10:11;9.90;99.90
47921;DHT22;33686;48.770;9.186;2022-12-24T21:12:37;9.90;99.90
47921;DHT22;33686;48.770;9.186;2022-12-24T21:15:21;9.90;99.90
47921;DHT22;33686;48.770;9.186;2022-12-24T21:17:47;9.90;99.90
47921;DHT22;33686;48.770;9.186;2022-12-24T21:20:13;9.90;99.90
47921;DHT22;33686;48.770;9.186;2022-12-24T21:22:38;9.90;99.90
47921;DHT22;33686;48.770;9.186;2022-12-24T21:25:04;9.90;99.90
47921;DHT22;33686;48.770;9.186;2022-12-24T21:27:30;9.80;99.90
47921;DHT22;33686;48.770;9.186;2022-12-24T21:29:56;9.80;99.90
47921;DHT22;33686;48.770;9.186;2022-12-24T21:32:22;9.80;99.90
47921;DHT22;33686;48.770;9.186;2022-12-24T21:34:47;9.80;99.90
47921;DHT22;33686;48.770;9.186;2022-12-24T21:37:13;9.80;99.90
47921;DHT22;33686;48.770;9.186;2022-12-24T21:39:38;9.80;99.90
47921;DHT22;33686;48.770;9.186;2022-12-24T21:42:04;9.80;99.90
47921;DHT22;33686;48.770;9.186;2022-12-24T21:44:29;9.70;99.90
47921;DHT22;33686;48.770;9.186;2022-12-24T21:46:55;9.80;99.90
47921;DHT22;33686;48.770;9.186;2022-12-24T21:49:20;9.80;99.90
47921;DHT22;33686;48.770;9.186;2022-12-24T21:52:05;9.70;99.90
47921;DHT22;33686;48.770;9.186;2022-12-24T21:54:30;9.70;99.90
47921;DHT22;33686;48.770;9.186;2022-12-24T21:57:00;9.70;99.90
47921;DHT22;33686;48.770;9.186;2022-12-24T21:59:47;9.70;99.90
47921;DHT22;33686;48.770;9.186;2022-12-24T22:02:13;9.70;99.90
47921;DHT22;33686;48.770;9.186;2022-12-24T22:04:39;9.70;99.90
47921;DHT22;33686;48.770;9.186;2022-12-24T22:07:05;9.70;99.90
47921;DHT22;33686;48.770;9.186;2022-12-24T22:09:59;9.70;99.90
47921;DHT22;33686;48.770;9.186;2022-12-24T22:12:43;9.70;99.90
47921;DHT22;33686;48.770;9.186;2022-12-24T22:15:09;9.70;99.90
47921;DHT22;33686;48.770;9.186;2022-12-24T22:17:34;9.70;99.90
47921;DHT22;33686;48.770;9.186;2022-12-24T22:20:00;9.70;99.90
47921;DHT22;33686;48.770;9.186;2022-12-24T22:22:25;9.70;99.90
47921;DHT22;33686;48.770;9.186;2022-12-24T22:24:51;9.60;99.90
47921;DHT22;33686;48.770;9.186;2022-12-24T22:27:17;9.60;99.90
47921;DHT22;33686;48.770;9.186;2022-12-24T22:29:42;9.50;99.90
47921;DHT22;33686;48.770;9.186;2022-12-24T22:32:08;9.50;99.90
47921;DHT22;33686;48.770;9.186;2022-12-24T22:34:33;9.50;99.90
47921;DHT22;33686;48.770;9.186;2022-12-24T22:37:00;9.40;99.90
47921;DHT22;33686;48.770;9.186;2022-12-24T22:39:26;9.40;99.90
47921;DHT22;33686;48.770;9.186;2022-12-24T22:41:51;9.40;99.90
47921;DHT22;33686;48.770;9.186;2022-12-24T22:44:18;9.30;99.90
47921;DHT22;33686;48.770;9.186;2022-12-24T22:46:44;9.20;99.90
47921;DHT22;33686;48.770;9.186;2022-12-24T22:49:09;9.20;99.90
47921;DHT22;33686;48.770;9.186;2022-12-24T22:51:35;9.20;99.90
47921;DHT22;33686;48.770;9.186;2022-12-24T22:54:01;9.10;99.90
47921;DHT22;33686;48.770;9.186;2022-12-24T22:56:27;9.10;99.90
47921;DHT22;33686;48.770;9.186;2022-12-24T22:58:53;9.10;99.90
